Liberty, TX

10:33 PM CDT on September 01, 2014 (GMT -0500)
APRSWXNET Liberty TX US | Change Station
CLOSE
Current Station
Personal Weather Station
Location: Liberty, TX
Elevation: 104 ft
Nearby Weather Stations

Elev 104 ft 30.07 °N, 94.80 °W | Updated 34 minutes ago

Clear
Clear
79 °F
Feels Like 83 °F
N
0
Wind Variable Wind from NNW
Gusts 0.0 mph

Today
High -- | Low -- °F
--% Chance of Precip.
Yesterday
High -- | Low -- °F
Precip. -- in
6:56 AM 7:41 PM
Waxing Crescent, 47% visible
Pressure 29.97 in
Visibility 10.0 miles
Clouds Clear
Heat Index 83 °F
Dew Point 78 °F
Humidity 96%
Rainfall -999.00 in
Snow Depth Not available.
UV 0 out of 12
Pollen 6.40 out of 12
Ozone Good
PM2.5 Moderate
Flu Activity Not available.
METAR K6R3 020315Z AUTO 00000KT 10SM CLR 26/25 A2997 RMK AO2 T02600250

More Conditions Fewer Conditions

Pressure 29.97 in
Visibility 10.0 miles
Clouds Clear
Heat Index 83 °F
Dew Point 78 °F
Humidity 96%
Rainfall -999.00 in
Snow Depth Not available.
UV 0 out of 12
Pollen 6.40 out of 12
Ozone Good
PM2.5 Moderate
Flu Activity Not available.
METAR K6R3 020315Z AUTO 00000KT 10SM CLR 26/25 A2997 RMK AO2 T02600250

More Conditions Fewer Conditions

10-Day Weather Forecast

Almanac

Astronomy

Sep. 01, 2014 Rise Set
Actual Time 6:56 AM CDT 7:41 PM CDT
Civil Twilight 6:31 AM CDT 8:05 PM CDT
Nautical Twilight 6:02 AM CDT 8:34 PM CDT
Astronomical Twilight 5:33 AM CDT 9:03 PM CDT
Moon 1:13 PM CDT (9/1) No Moon Set
Length of Visible Light 13h 34m
Length of Day
12h 45m
Tomorrow will be 1m 45s shorter.
Waxing Crescent, 47% of the Moon is Illuminated
Today
Waxing Crescent
Sep 2
First Quarter
Sep 8
Full
Sep 15
Last Quarter
Sep 24
New

Today's Extremes

State Highs State Lows

Community

WunderPhotos

Upload Photos

1,749,555 photos uploaded!

WunderBlogs® & News

Nearby

Air Quality

  Air Quality AQ Index Pollutant
Yesterday Good
PM2.5
Yesterday Good
OZONE
Current Moderate
PM2.5
Current Good
OZONE
Monday Good
OZONE
Monday Good
PM10
Tuesday Good
OZONE
Tuesday Good
PM10
Wednesday Good
OZONE
Wednesday Good
PM10
Thursday Good
OZONE
Thursday Good
PM10

Snow Depth

Station Depth Elevation
No new snow has been reported.

Earthquake Activity

City Distance Mag. Time & Date
No recent earthquake activity has been reported nearby.
Minimum magnitude displayed is 2.5.

Coastal Water Temperatures

Place Temperature
Eagle Point, TX 84.9 °F
USCG Freeport, TX 84.9 °F
Galveston Pier TX 84.0 °F
Galveston Bay (North Jetty), TX 84.0 °F
Rollover Pass, TX 82.9 °F

Nearby Weather Stations